sensor_id;sensor_type;location;lat;lon;timestamp;temperature;humidity
13049;DHT22;6591;51.446;5.404;2023-06-05T00:00:46;16.40;90.60
13049;DHT22;6591;51.446;5.404;2023-06-05T00:03:13;16.00;91.00
13049;DHT22;6591;51.446;5.404;2023-06-05T00:05:41;15.90;90.60
13049;DHT22;6591;51.446;5.404;2023-06-05T00:08:07;16.40;90.80
13049;DHT22;6591;51.446;5.404;2023-06-05T00:10:34;15.80;91.00
13049;DHT22;6591;51.446;5.404;2023-06-05T00:13:02;15.80;91.30
13049;DHT22;6591;51.446;5.404;2023-06-05T00:15:29;15.90;91.60
13049;DHT22;6591;51.446;5.404;2023-06-05T00:18:00;16.10;91.70
13049;DHT22;6591;51.446;5.404;2023-06-05T00:20:27;15.60;91.70
13049;DHT22;6591;51.446;5.404;2023-06-05T00:22:54;15.70;91.60
13049;DHT22;6591;51.446;5.404;2023-06-05T00:25:21;15.60;91.60
13049;DHT22;6591;51.446;5.404;2023-06-05T00:27:49;15.50;92.30
13049;DHT22;6591;51.446;5.404;2023-06-05T00:30:16;15.50;91.80
13049;DHT22;6591;51.446;5.404;2023-06-05T00:32:43;17.30;92.50
13049;DHT22;6591;51.446;5.404;2023-06-05T00:35:10;16.90;92.70
13049;DHT22;6591;51.446;5.404;2023-06-05T00:37:37;16.00;92.50
13049;DHT22;6591;51.446;5.404;2023-06-05T00:40:06;15.30;92.40
13049;DHT22;6591;51.446;5.404;2023-06-05T00:42:33;15.30;92.70
13049;DHT22;6591;51.446;5.404;2023-06-05T00:45:00;15.90;92.30
13049;DHT22;6591;51.446;5.404;2023-06-05T00:47:27;15.20;92.20
13049;DHT22;6591;51.446;5.404;2023-06-05T00:49:55;15.10;92.40
13049;DHT22;6591;51.446;5.404;2023-06-05T00:52:23;15.10;92.30
13049;DHT22;6591;51.446;5.404;2023-06-05T00:54:51;15.10;93.30
13049;DHT22;6591;51.446;5.404;2023-06-05T00:57:19;16.40;93.60
13049;DHT22;6591;51.446;5.404;2023-06-05T00:59:48;15.70;93.70
13049;DHT22;6591;51.446;5.404;2023-06-05T01:02:16;14.90;93.30
13049;DHT22;6591;51.446;5.404;2023-06-05T01:04:44;14.90;93.20
13049;DHT22;6591;51.446;5.404;2023-06-05T01:07:11;14.90;93.30
13049;DHT22;6591;51.446;5.404;2023-06-05T01:09:41;14.80;93.20
13049;DHT22;6591;51.446;5.404;2023-06-05T01:12:26;14.80;93.70
13049;DHT22;6591;51.446;5.404;2023-06-05T01:14:57;14.70;93.60
13049;DHT22;6591;51.446;5.404;2023-06-05T01:17:28;14.70;93.90
13049;DHT22;6591;51.446;5.404;2023-06-05T01:19:59;15.10;94.40
13049;DHT22;6591;51.446;5.404;2023-06-05T01:22:33;14.60;93.80
13049;DHT22;6591;51.446;5.404;2023-06-05T01:25:01;14.60;94.40
13049;DHT22;6591;51.446;5.404;2023-06-05T01:27:45;14.50;94.00
13049;DHT22;6591;51.446;5.404;2023-06-05T01:30:20;14.50;94.80
13049;DHT22;6591;51.446;5.404;2023-06-05T01:33:02;15.20;94.80
13049;DHT22;6591;51.446;5.404;2023-06-05T01:35:40;14.40;94.70
13049;DHT22;6591;51.446;5.404;2023-06-05T01:38:10;14.50;94.30
13049;DHT22;6591;51.446;5.404;2023-06-05T01:40:38;14.30;95.10
13049;DHT22;6591;51.446;5.404;2023-06-05T01:43:09;14.20;95.40
13049;DHT22;6591;51.446;5.404;2023-06-05T01:45:37;14.20;95.00
13049;DHT22;6591;51.446;5.404;2023-06-05T01:48:10;15.80;96.00
13049;DHT22;6591;51.446;5.404;2023-06-05T01:50:37;14.40;95.60
13049;DHT22;6591;51.446;5.404;2023-06-05T01:53:05;14.10;95.20
13049;DHT22;6591;51.446;5.404;2023-06-05T01:55:32;14.10;95.40
13049;DHT22;6591;51.446;5.404;2023-06-05T01:57:59;14.00;95.70
13049;DHT22;6591;51.446;5.404;2023-06-05T02:00:26;14.00;95.80
13049;DHT22;6591;51.446;5.404;2023-06-05T02:02:54;13.90;95.80
13049;DHT22;6591;51.446;5.404;2023-06-05T02:05:21;15.10;96.10
13049;DHT22;6591;51.446;5.404;2023-06-05T02:07:49;13.90;96.50
13049;DHT22;6591;51.446;5.404;2023-06-05T02:10:20;14.80;96.50
13049;DHT22;6591;51.446;5.404;2023-06-05T02:12:48;13.80;96.50
13049;DHT22;6591;51.446;5.404;2023-06-05T02:15:16;13.80;96.50
13049;DHT22;6591;51.446;5.404;2023-06-05T02:17:44;13.70;96.30
13049;DHT22;6591;51.446;5.404;2023-06-05T02:20:18;14.90;96.80
13049;DHT22;6591;51.446;5.404;2023-06-05T02:22:46;13.80;96.70
13049;DHT22;6591;51.446;5.404;2023-06-05T02:25:16;13.70;96.40
13049;DHT22;6591;51.446;5.404;2023-06-05T02:27:47;13.70;96.90
13049;DHT22;6591;51.446;5.404;2023-06-05T02:30:15;13.60;97.30
13049;DHT22;6591;51.446;5.404;2023-06-05T02:32:42;13.60;97.00
13049;DHT22;6591;51.446;5.404;2023-06-05T02:35:11;13.60;97.00
13049;DHT22;6591;51.446;5.404;2023-06-05T02:37:40;14.50;97.70
13049;DHT22;6591;51.446;5.404;2023-06-05T02:40:12;14.10;97.50
13049;DHT22;6591;51.446;5.404;2023-06-05T02:42:40;13.50;97.60
13049;DHT22;6591;51.446;5.404;2023-06-05T02:45:09;13.50;97.60
13049;DHT22;6591;51.446;5.404;2023-06-05T02:47:37;13.40;97.90
13049;DHT22;6591;51.446;5.404;2023-06-05T02:50:05;13.40;97.90
13049;DHT22;6591;51.446;5.404;2023-06-05T02:52:36;13.40;98.00
13049;DHT22;6591;51.446;5.404;2023-06-05T02:55:13;13.40;98.20
13049;DHT22;6591;51.446;5.404;2023-06-05T02:57:41;13.30;98.00
13049;DHT22;6591;51.446;5.404;2023-06-05T03:00:14;13.40;98.10
13049;DHT22;6591;51.446;5.404;2023-06-05T03:02:47;13.30;98.20
13049;DHT22;6591;51.446;5.404;2023-06-05T03:05:19;13.30;98.60
13049;DHT22;6591;51.446;5.404;2023-06-05T03:07:53;13.20;98.30
13049;DHT22;6591;51.446;5.404;2023-06-05T03:10:21;13.20;98.40
13049;DHT22;6591;51.446;5.404;2023-06-05T03:12:49;13.90;98.60
13049;DHT22;6591;51.446;5.404;2023-06-05T03:15:17;13.10;98.50
13049;DHT22;6591;51.446;5.404;2023-06-05T03:17:47;14.50;98.70
13049;DHT22;6591;51.446;5.404;2023-06-05T03:20:18;13.00;98.60
13049;DHT22;6591;51.446;5.404;2023-06-05T03:22:46;13.00;98.70
13049;DHT22;6591;51.446;5.404;2023-06-05T03:25:14;13.00;98.70
13049;DHT22;6591;51.446;5.404;2023-06-05T03:27:43;13.60;99.20
13049;DHT22;6591;51.446;5.404;2023-06-05T03:30:11;14.30;99.60
13049;DHT22;6591;51.446;5.404;2023-06-05T03:32:46;12.80;99.20
13049;DHT22;6591;51.446;5.404;2023-06-05T03:35:14;13.30;99.60
13049;DHT22;6591;51.446;5.404;2023-06-05T03:37:42;12.80;99.40
13049;DHT22;6591;51.446;5.404;2023-06-05T03:40:09;12.70;99.40
13049;DHT22;6591;51.446;5.404;2023-06-05T03:42:38;12.70;99.30
13049;DHT22;6591;51.446;5.404;2023-06-05T03:45:05;12.70;99.40
13049;DHT22;6591;51.446;5.404;2023-06-05T03:47:32;12.70;99.60
13049;DHT22;6591;51.446;5.404;2023-06-05T03:50:04;12.60;99.70
13049;DHT22;6591;51.446;5.404;2023-06-05T03:52:35;12.60;99.70
13049;DHT22;6591;51.446;5.404;2023-06-05T03:55:06;13.20;99.70
13049;DHT22;6591;51.446;5.404;2023-06-05T03:57:36;12.60;99.90
13049;DHT22;6591;51.446;5.404;2023-06-05T04:00:06;12.60;99.90
13049;DHT22;6591;51.446;5.404;2023-06-05T04:02:45;12.60;99.90
13049;DHT22;6591;51.446;5.404;2023-06-05T04:05:15;12.60;99.90
13049;DHT22;6591;51.446;5.404;2023-06-05T04:07:42;12.60;99.90
13049;DHT22;6591;51.446;5.404;2023-06-05T04:10:09;12.60;99.90
13049;DHT22;6591;51.446;5.404;2023-06-05T04:12:36;12.60;99.90
13049;DHT22;6591;51.446;5.404;2023-06-05T04:15:05;12.60;99.90
13049;DHT22;6591;51.446;5.404;2023-06-05T04:17:33;12.60;99.90
13049;DHT22;6591;51.446;5.404;2023-06-05T04:20:01;12.60;99.90
13049;DHT22;6591;51.446;5.404;2023-06-05T04:22:28;12.60;99.90
13049;DHT22;6591;51.446;5.404;2023-06-05T04:24:55;12.70;99.90
13049;DHT22;6591;51.446;5.404;2023-06-05T04:27:22;13.30;99.90
13049;DHT22;6591;51.446;5.404;2023-06-05T04:29:55;12.70;99.90
13049;DHT22;6591;51.446;5.404;2023-06-05T04:32:23;13.40;99.90
13049;DHT22;6591;51.446;5.404;2023-06-05T04:34:50;13.80;99.90
13049;DHT22;6591;51.446;5.404;2023-06-05T04:37:19;12.80;99.90
13049;DHT22;6591;51.446;5.404;2023-06-05T04:39:46;13.50;99.90
13049;DHT22;6591;51.446;5.404;2023-06-05T04:42:13;12.80;99.90
13049;DHT22;6591;51.446;5.404;2023-06-05T04:44:44;12.90;99.90
13049;DHT22;6591;51.446;5.404;2023-06-05T04:47:12;13.80;99.90
13049;DHT22;6591;51.446;5.404;2023-06-05T04:49:39;13.00;99.90
13049;DHT22;6591;51.446;5.404;2023-06-05T04:52:06;13.00;99.90
13049;DHT22;6591;51.446;5.404;2023-06-05T04:54:34;13.10;99.90
13049;DHT22;6591;51.446;5.404;2023-06-05T04:57:02;13.50;99.90
13049;DHT22;6591;51.446;5.404;2023-06-05T04:59:33;13.10;99.90
13049;DHT22;6591;51.446;5.404;2023-06-05T05:02:02;13.20;99.90
13049;DHT22;6591;51.446;5.404;2023-06-05T05:04:31;13.30;99.90
13049;DHT22;6591;51.446;5.404;2023-06-05T05:07:00;13.50;99.90
13049;DHT22;6591;51.446;5.404;2023-06-05T05:09:31;13.40;99.90
13049;DHT22;6591;51.446;5.404;2023-06-05T05:12:01;13.80;99.90
13049;DHT22;6591;51.446;5.404;2023-06-05T05:14:29;13.50;99.90
13049;DHT22;6591;51.446;5.404;2023-06-05T05:16:56;13.60;99.90
13049;DHT22;6591;51.446;5.404;2023-06-05T05:19:25;13.90;99.90
13049;DHT22;6591;51.446;5.404;2023-06-05T05:21:53;15.00;99.90
13049;DHT22;6591;51.446;5.404;2023-06-05T05:24:20;13.90;99.90
13049;DHT22;6591;51.446;5.404;2023-06-05T05:26:47;14.00;99.90
13049;DHT22;6591;51.446;5.404;2023-06-05T05:29:16;14.00;99.90
13049;DHT22;6591;51.446;5.404;2023-06-05T05:31:44;14.10;99.90
13049;DHT22;6591;51.446;5.404;2023-06-05T05:34:13;14.30;99.90
13049;DHT22;6591;51.446;5.404;2023-06-05T05:36:40;14.30;99.90
13049;DHT22;6591;51.446;5.404;2023-06-05T05:39:07;15.40;99.90
13049;DHT22;6591;51.446;5.404;2023-06-05T05:41:36;14.50;99.90
13049;DHT22;6591;51.446;5.404;2023-06-05T05:44:03;14.50;99.80
13049;DHT22;6591;51.446;5.404;2023-06-05T05:46:30;12.90;99.20
13049;DHT22;6591;51.446;5.404;2023-06-05T05:48:58;14.60;99.60
13049;DHT22;6591;51.446;5.404;2023-06-05T05:51:25;14.70;99.50
13049;DHT22;6591;51.446;5.404;2023-06-05T05:53:52;14.80;99.40
13049;DHT22;6591;51.446;5.404;2023-06-05T05:56:19;14.90;99.20
13049;DHT22;6591;51.446;5.404;2023-06-05T05:58:47;15.30;99.20
13049;DHT22;6591;51.446;5.404;2023-06-05T06:01:14;15.00;98.90
13049;DHT22;6591;51.446;5.404;2023-06-05T06:03:41;15.10;98.70
13049;DHT22;6591;51.446;5.404;2023-06-05T06:06:09;15.20;98.60
13049;DHT22;6591;51.446;5.404;2023-06-05T06:08:37;15.30;98.50
13049;DHT22;6591;51.446;5.404;2023-06-05T06:11:04;16.10;98.40
13049;DHT22;6591;51.446;5.404;2023-06-05T06:13:34;15.50;98.10
13049;DHT22;6591;51.446;5.404;2023-06-05T06:16:02;16.60;98.20
13049;DHT22;6591;51.446;5.404;2023-06-05T06:18:29;15.70;97.70
13049;DHT22;6591;51.446;5.404;2023-06-05T06:20:57;16.20;97.60
13049;DHT22;6591;51.446;5.404;2023-06-05T06:23:25;15.90;97.40
13049;DHT22;6591;51.446;5.404;2023-06-05T06:25:52;16.00;97.20
13049;DHT22;6591;51.446;5.404;2023-06-05T06:28:19;17.00;97.30
13049;DHT22;6591;51.446;5.404;2023-06-05T06:30:46;16.20;97.00
13049;DHT22;6591;51.446;5.404;2023-06-05T06:33:14;16.40;96.90
13049;DHT22;6591;51.446;5.404;2023-06-05T06:35:40;17.40;97.00
13049;DHT22;6591;51.446;5.404;2023-06-05T06:38:08;16.60;96.60
13049;DHT22;6591;51.446;5.404;2023-06-05T06:40:35;16.80;96.30
13049;DHT22;6591;51.446;5.404;2023-06-05T06:43:02;17.30;96.30
13049;DHT22;6591;51.446;5.404;2023-06-05T06:45:38;17.00;95.70
13049;DHT22;6591;51.446;5.404;2023-06-05T06:48:05;17.10;95.50
13049;DHT22;6591;51.446;5.404;2023-06-05T06:50:34;17.30;95.40
13049;DHT22;6591;51.446;5.404;2023-06-05T06:53:02;17.40;95.30
13049;DHT22;6591;51.446;5.404;2023-06-05T06:55:29;17.40;95.00
13049;DHT22;6591;51.446;5.404;2023-06-05T06:57:57;17.70;94.70
13049;DHT22;6591;51.446;5.404;2023-06-05T07:00:23;18.00;94.60
13049;DHT22;6591;51.446;5.404;2023-06-05T07:02:51;17.90;94.40
13049;DHT22;6591;51.446;5.404;2023-06-05T07:05:18;18.00;94.10
13049;DHT22;6591;51.446;5.404;2023-06-05T07:07:46;18.60;93.70
13049;DHT22;6591;51.446;5.404;2023-06-05T07:10:13;18.30;93.20
13049;DHT22;6591;51.446;5.404;2023-06-05T07:12:41;18.40;92.90
13049;DHT22;6591;51.446;5.404;2023-06-05T07:15:08;18.50;92.60
13049;DHT22;6591;51.446;5.404;2023-06-05T07:17:35;18.60;92.70
13049;DHT22;6591;51.446;5.404;2023-06-05T07:20:03;19.70;92.90
13049;DHT22;6591;51.446;5.404;2023-06-05T07:22:32;18.90;92.50
13049;DHT22;6591;51.446;5.404;2023-06-05T07:24:59;19.00;92.20
13049;DHT22;6591;51.446;5.404;2023-06-05T07:27:27;18.90;92.00
13049;DHT22;6591;51.446;5.404;2023-06-05T07:29:55;19.30;91.80
13049;DHT22;6591;51.446;5.404;2023-06-05T07:32:23;19.40;91.70
13049;DHT22;6591;51.446;5.404;2023-06-05T07:34:51;19.60;91.30
13049;DHT22;6591;51.446;5.404;2023-06-05T07:37:18;19.80;91.10
13049;DHT22;6591;51.446;5.404;2023-06-05T07:39:45;20.20;90.90
13049;DHT22;6591;51.446;5.404;2023-06-05T07:42:13;20.00;90.40
13049;DHT22;6591;51.446;5.404;2023-06-05T07:44:42;20.10;90.10
13049;DHT22;6591;51.446;5.404;2023-06-05T07:47:09;20.20;89.60
13049;DHT22;6591;51.446;5.404;2023-06-05T07:49:36;20.30;89.10
13049;DHT22;6591;51.446;5.404;2023-06-05T07:52:04;20.30;89.00
13049;DHT22;6591;51.446;5.404;2023-06-05T07:54:30;20.40;88.20
13049;DHT22;6591;51.446;5.404;2023-06-05T07:56:57;20.60;88.40
13049;DHT22;6591;51.446;5.404;2023-06-05T07:59:26;20.50;88.60
13049;DHT22;6591;51.446;5.404;2023-06-05T08:01:55;20.60;87.90
13049;DHT22;6591;51.446;5.404;2023-06-05T08:04:23;20.70;87.60
13049;DHT22;6591;51.446;5.404;2023-06-05T08:06:54;20.80;86.80
13049;DHT22;6591;51.446;5.404;2023-06-05T08:09:21;20.80;86.70
13049;DHT22;6591;51.446;5.404;2023-06-05T08:11:49;20.90;85.50
13049;DHT22;6591;51.446;5.404;2023-06-05T08:14:16;21.00;85.40
13049;DHT22;6591;51.446;5.404;2023-06-05T08:16:43;21.00;85.30
13049;DHT22;6591;51.446;5.404;2023-06-05T08:19:10;21.10;85.10
13049;DHT22;6591;51.446;5.404;2023-06-05T08:21:37;21.10;85.50
13049;DHT22;6591;51.446;5.404;2023-06-05T08:24:05;21.20;84.20
13049;DHT22;6591;51.446;5.404;2023-06-05T08:26:32;21.30;84.70
13049;DHT22;6591;51.446;5.404;2023-06-05T08:29:00;21.40;84.10
13049;DHT22;6591;51.446;5.404;2023-06-05T08:31:27;21.50;83.30
13049;DHT22;6591;51.446;5.404;2023-06-05T08:33:54;21.60;83.30
13049;DHT22;6591;51.446;5.404;2023-06-05T08:36:21;21.70;83.00
13049;DHT22;6591;51.446;5.404;2023-06-05T08:38:51;21.90;83.60
13049;DHT22;6591;51.446;5.404;2023-06-05T08:41:18;22.00;82.40
13049;DHT22;6591;51.446;5.404;2023-06-05T08:43:45;22.20;82.10
13049;DHT22;6591;51.446;5.404;2023-06-05T08:46:13;22.30;81.80
13049;DHT22;6591;51.446;5.404;2023-06-05T08:48:48;22.40;81.80
13049;DHT22;6591;51.446;5.404;2023-06-05T08:51:20;22.60;79.90
13049;DHT22;6591;51.446;5.404;2023-06-05T08:54:03;22.70;79.90
13049;DHT22;6591;51.446;5.404;2023-06-05T08:56:33;22.80;79.70
13049;DHT22;6591;51.446;5.404;2023-06-05T08:59:05;22.90;79.20
13049;DHT22;6591;51.446;5.404;2023-06-05T09:01:33;23.00;78.80
13049;DHT22;6591;51.446;5.404;2023-06-05T09:04:01;23.10;78.60
13049;DHT22;6591;51.446;5.404;2023-06-05T09:06:28;23.20;78.00
13049;DHT22;6591;51.446;5.404;2023-06-05T09:08:55;23.30;77.80
13049;DHT22;6591;51.446;5.404;2023-06-05T09:11:29;23.40;77.60
13049;DHT22;6591;51.446;5.404;2023-06-05T09:13:59;23.50;75.80
13049;DHT22;6591;51.446;5.404;2023-06-05T09:16:35;23.60;75.40
13049;DHT22;6591;51.446;5.404;2023-06-05T09:19:09;23.70;73.50
13049;DHT22;6591;51.446;5.404;2023-06-05T09:21:38;23.80;73.50
13049;DHT22;6591;51.446;5.404;2023-06-05T09:24:16;23.80;74.10
13049;DHT22;6591;51.446;5.404;2023-06-05T09:27:05;23.80;74.10
13049;DHT22;6591;51.446;5.404;2023-06-05T09:29:37;23.90;73.20
13049;DHT22;6591;51.446;5.404;2023-06-05T09:32:09;24.00;74.00
13049;DHT22;6591;51.446;5.404;2023-06-05T09:34:44;24.10;74.10
13049;DHT22;6591;51.446;5.404;2023-06-05T09:37:13;24.20;74.10
13049;DHT22;6591;51.446;5.404;2023-06-05T09:39:41;24.40;73.30
13049;DHT22;6591;51.446;5.404;2023-06-05T09:42:12;24.50;71.50
13049;DHT22;6591;51.446;5.404;2023-06-05T09:44:39;24.60;70.30
13049;DHT22;6591;51.446;5.404;2023-06-05T09:47:08;24.70;70.90
13049;DHT22;6591;51.446;5.404;2023-06-05T09:52:10;24.80;69.80
13049;DHT22;6591;51.446;5.404;2023-06-05T09:54:41;24.80;69.00
13049;DHT22;6591;51.446;5.404;2023-06-05T09:57:13;24.80;69.20
13049;DHT22;6591;51.446;5.404;2023-06-05T09:59:53;24.90;69.00
13049;DHT22;6591;51.446;5.404;2023-06-05T10:02:24;24.90;69.10
13049;DHT22;6591;51.446;5.404;2023-06-05T10:05:03;25.00;69.20
13049;DHT22;6591;51.446;5.404;2023-06-05T10:07:36;25.10;68.50
13049;DHT22;6591;51.446;5.404;2023-06-05T10:10:06;25.70;68.50
13049;DHT22;6591;51.446;5.404;2023-06-05T10:12:36;25.30;68.60
13049;DHT22;6591;51.446;5.404;2023-06-05T10:15:03;25.40;67.70
13049;DHT22;6591;51.446;5.404;2023-06-05T10:17:34;25.50;67.40
13049;DHT22;6591;51.446;5.404;2023-06-05T10:20:05;25.60;67.80
13049;DHT22;6591;51.446;5.404;2023-06-05T10:22:35;25.70;67.00
13049;DHT22;6591;51.446;5.404;2023-06-05T10:25:09;25.90;66.30
13049;DHT22;6591;51.446;5.404;2023-06-05T10:27:56;26.00;66.80
13049;DHT22;6591;51.446;5.404;2023-06-05T10:30:44;26.20;65.00
13049;DHT22;6591;51.446;5.404;2023-06-05T10:36:39;26.60;65.20
13049;DHT22;6591;51.446;5.404;2023-06-05T10:39:10;26.70;64.40
13049;DHT22;6591;51.446;5.404;2023-06-05T10:41:38;26.90;64.40
13049;DHT22;6591;51.446;5.404;2023-06-05T10:44:06;27.00;63.80
13049;DHT22;6591;51.446;5.404;2023-06-05T10:46:35;27.10;64.30
13049;DHT22;6591;51.446;5.404;2023-06-05T10:51:48;27.40;61.90
13049;DHT22;6591;51.446;5.404;2023-06-05T10:56:59;27.60;61.80
13049;DHT22;6591;51.446;5.404;2023-06-05T10:59:31;27.70;61.30
13049;DHT22;6591;51.446;5.404;2023-06-05T11:02:22;27.80;61.00
13049;DHT22;6591;51.446;5.404;2023-06-05T11:07:24;28.00;61.10
13049;DHT22;6591;51.446;5.404;2023-06-05T11:10:19;28.20;61.00
13049;DHT22;6591;51.446;5.404;2023-06-05T11:12:53;28.40;59.00
13049;DHT22;6591;51.446;5.404;2023-06-05T11:20:55;28.50;57.20
13049;DHT22;6591;51.446;5.404;2023-06-05T11:23:23;28.50;58.30
13049;DHT22;6591;51.446;5.404;2023-06-05T11:25:58;28.40;57.40
13049;DHT22;6591;51.446;5.404;2023-06-05T11:29:11;28.40;57.20
13049;DHT22;6591;51.446;5.404;2023-06-05T11:31:39;28.30;57.50
13049;DHT22;6591;51.446;5.404;2023-06-05T11:34:13;28.40;58.40
13049;DHT22;6591;51.446;5.404;2023-06-05T11:36:41;28.50;57.10
13049;DHT22;6591;51.446;5.404;2023-06-05T11:39:08;28.60;57.00
13049;DHT22;6591;51.446;5.404;2023-06-05T11:41:47;28.70;57.20
13049;DHT22;6591;51.446;5.404;2023-06-05T11:44:30;28.70;55.10
13049;DHT22;6591;51.446;5.404;2023-06-05T11:47:02;28.90;56.00
13049;DHT22;6591;51.446;5.404;2023-06-05T11:49:29;29.00;55.90
13049;DHT22;6591;51.446;5.404;2023-06-05T11:51:57;29.10;55.30
13049;DHT22;6591;51.446;5.404;2023-06-05T11:54:31;29.10;55.60
13049;DHT22;6591;51.446;5.404;2023-06-05T11:57:02;29.20;55.30
13049;DHT22;6591;51.446;5.404;2023-06-05T11:59:37;29.30;55.70
13049;DHT22;6591;51.446;5.404;2023-06-05T12:02:05;29.50;54.90
13049;DHT22;6591;51.446;5.404;2023-06-05T12:04:33;29.60;55.40
13049;DHT22;6591;51.446;5.404;2023-06-05T12:07:01;29.80;55.40
13049;DHT22;6591;51.446;5.404;2023-06-05T12:09:29;29.90;54.50
13049;DHT22;6591;51.446;5.404;2023-06-05T12:12:07;30.00;54.00
13049;DHT22;6591;51.446;5.404;2023-06-05T12:14:37;30.20;53.40
13049;DHT22;6591;51.446;5.404;2023-06-05T12:17:11;30.20;53.40
13049;DHT22;6591;51.446;5.404;2023-06-05T12:19:38;30.40;53.70
13049;DHT22;6591;51.446;5.404;2023-06-05T12:22:07;30.70;53.30
13049;DHT22;6591;51.446;5.404;2023-06-05T12:24:37;30.90;51.30
13049;DHT22;6591;51.446;5.404;2023-06-05T12:27:04;30.90;50.80
13049;DHT22;6591;51.446;5.404;2023-06-05T12:29:35;30.90;51.70
13049;DHT22;6591;51.446;5.404;2023-06-05T12:32:23;30.90;51.60
13049;DHT22;6591;51.446;5.404;2023-06-05T12:34:52;30.90;50.40
13049;DHT22;6591;51.446;5.404;2023-06-05T12:37:32;31.00;50.50
13049;DHT22;6591;51.446;5.404;2023-06-05T12:40:05;31.00;50.30
13049;DHT22;6591;51.446;5.404;2023-06-05T12:42:40;31.10;49.50
13049;DHT22;6591;51.446;5.404;2023-06-05T12:45:10;31.00;48.70
13049;DHT22;6591;51.446;5.404;2023-06-05T12:47:39;31.10;48.70
13049;DHT22;6591;51.446;5.404;2023-06-05T12:50:08;31.10;48.10
13049;DHT22;6591;51.446;5.404;2023-06-05T12:52:40;31.10;49.00
13049;DHT22;6591;51.446;5.404;2023-06-05T12:55:08;31.20;49.00
13049;DHT22;6591;51.446;5.404;2023-06-05T12:57:36;31.30;49.40
13049;DHT22;6591;51.446;5.404;2023-06-05T13:00:05;31.40;48.60
13049;DHT22;6591;51.446;5.404;2023-06-05T13:02:42;31.50;48.10
13049;DHT22;6591;51.446;5.404;2023-06-05T13:05:13;31.50;48.10
13049;DHT22;6591;51.446;5.404;2023-06-05T13:07:41;31.60;47.70
13049;DHT22;6591;51.446;5.404;2023-06-05T13:10:09;31.70;46.80
13049;DHT22;6591;51.446;5.404;2023-06-05T13:12:38;31.70;46.50
13049;DHT22;6591;51.446;5.404;2023-06-05T13:15:05;31.70;46.20
13049;DHT22;6591;51.446;5.404;2023-06-05T13:17:34;31.70;47.40
13049;DHT22;6591;51.446;5.404;2023-06-05T13:20:04;31.80;46.70
13049;DHT22;6591;51.446;5.404;2023-06-05T13:22:49;31.90;46.80
13049;DHT22;6591;51.446;5.404;2023-06-05T13:25:16;32.00;46.30
13049;DHT22;6591;51.446;5.404;2023-06-05T13:27:43;32.10;46.70
13049;DHT22;6591;51.446;5.404;2023-06-05T13:30:10;32.20;46.80
13049;DHT22;6591;51.446;5.404;2023-06-05T13:32:38;32.30;46.40
13049;DHT22;6591;51.446;5.404;2023-06-05T13:35:25;32.50;45.90
13049;DHT22;6591;51.446;5.404;2023-06-05T13:37:52;32.50;45.10
13049;DHT22;6591;51.446;5.404;2023-06-05T13:40:19;32.60;44.60
13049;DHT22;6591;51.446;5.404;2023-06-05T13:42:46;32.70;45.10
13049;DHT22;6591;51.446;5.404;2023-06-05T13:45:14;32.80;45.40
13049;DHT22;6591;51.446;5.404;2023-06-05T13:47:41;33.00;44.80
13049;DHT22;6591;51.446;5.404;2023-06-05T13:50:08;33.10;44.40
13049;DHT22;6591;51.446;5.404;2023-06-05T13:52:35;33.20;44.40
13049;DHT22;6591;51.446;5.404;2023-06-05T13:55:04;33.30;43.70
13049;DHT22;6591;51.446;5.404;2023-06-05T13:57:32;33.30;43.00
13049;DHT22;6591;51.446;5.404;2023-06-05T13:59:59;33.40;42.90
13049;DHT22;6591;51.446;5.404;2023-06-05T14:02:26;33.40;43.20
13049;DHT22;6591;51.446;5.404;2023-06-05T14:04:53;33.50;43.60
13049;DHT22;6591;51.446;5.404;2023-06-05T14:07:22;33.60;43.30
13049;DHT22;6591;51.446;5.404;2023-06-05T14:09:51;33.80;43.10
13049;DHT22;6591;51.446;5.404;2023-06-05T14:12:18;33.80;42.10
13049;DHT22;6591;51.446;5.404;2023-06-05T14:14:45;33.70;41.90
13049;DHT22;6591;51.446;5.404;2023-06-05T14:17:12;33.50;42.10
13049;DHT22;6591;51.446;5.404;2023-06-05T14:19:39;33.40;42.30
13049;DHT22;6591;51.446;5.404;2023-06-05T14:22:06;33.30;42.00
13049;DHT22;6591;51.446;5.404;2023-06-05T14:24:35;33.20;41.60
13049;DHT22;6591;51.446;5.404;2023-06-05T14:27:03;33.10;42.00
13049;DHT22;6591;51.446;5.404;2023-06-05T14:29:30;33.10;42.70
13049;DHT22;6591;51.446;5.404;2023-06-05T14:31:57;33.20;42.40
13049;DHT22;6591;51.446;5.404;2023-06-05T14:34:24;33.30;42.20
13049;DHT22;6591;51.446;5.404;2023-06-05T14:36:52;33.40;42.60
13049;DHT22;6591;51.446;5.404;2023-06-05T14:39:19;33.70;42.70
13049;DHT22;6591;51.446;5.404;2023-06-05T14:41:49;33.90;42.10
13049;DHT22;6591;51.446;5.404;2023-06-05T14:44:16;34.10;40.50
13049;DHT22;6591;51.446;5.404;2023-06-05T14:46:49;34.20;40.40
13049;DHT22;6591;51.446;5.404;2023-06-05T14:49:16;33.30;39.60
13049;DHT22;6591;51.446;5.404;2023-06-05T14:51:45;32.90;40.00
13049;DHT22;6591;51.446;5.404;2023-06-05T14:54:13;34.30;40.40
13049;DHT22;6591;51.446;5.404;2023-06-05T14:56:40;34.40;40.80
13049;DHT22;6591;51.446;5.404;2023-06-05T14:59:07;34.40;40.70
13049;DHT22;6591;51.446;5.404;2023-06-05T15:01:52;34.50;41.00
13049;DHT22;6591;51.446;5.404;2023-06-05T15:04:19;34.40;39.50
13049;DHT22;6591;51.446;5.404;2023-06-05T15:06:46;34.20;39.40
13049;DHT22;6591;51.446;5.404;2023-06-05T15:09:13;34.10;39.90
13049;DHT22;6591;51.446;5.404;2023-06-05T15:11:41;34.00;39.90
13049;DHT22;6591;51.446;5.404;2023-06-05T15:14:08;33.90;40.00
13049;DHT22;6591;51.446;5.404;2023-06-05T15:16:35;33.80;40.30
13049;DHT22;6591;51.446;5.404;2023-06-05T15:19:08;33.50;40.20
13049;DHT22;6591;51.446;5.404;2023-06-05T15:21:36;33.30;40.50
13049;DHT22;6591;51.446;5.404;2023-06-05T15:24:04;33.10;40.90
13049;DHT22;6591;51.446;5.404;2023-06-05T15:26:32;33.10;41.10
13049;DHT22;6591;51.446;5.404;2023-06-05T15:28:59;33.10;41.50
13049;DHT22;6591;51.446;5.404;2023-06-05T15:31:26;33.20;42.70
13049;DHT22;6591;51.446;5.404;2023-06-05T15:33:54;33.50;43.10
13049;DHT22;6591;51.446;5.404;2023-06-05T15:36:21;33.80;41.60
13049;DHT22;6591;51.446;5.404;2023-06-05T15:38:48;34.00;40.80
13049;DHT22;6591;51.446;5.404;2023-06-05T15:41:15;34.10;40.50
13049;DHT22;6591;51.446;5.404;2023-06-05T15:43:43;34.20;40.30
13049;DHT22;6591;51.446;5.404;2023-06-05T15:46:10;34.20;40.40
13049;DHT22;6591;51.446;5.404;2023-06-05T15:48:37;34.20;40.20
13049;DHT22;6591;51.446;5.404;2023-06-05T15:51:05;34.20;40.30
13049;DHT22;6591;51.446;5.404;2023-06-05T15:53:32;34.30;40.50
13049;DHT22;6591;51.446;5.404;2023-06-05T15:56:16;34.30;40.50
13049;DHT22;6591;51.446;5.404;2023-06-05T15:58:43;34.20;41.80
13049;DHT22;6591;51.446;5.404;2023-06-05T16:01:10;34.80;42.70
13049;DHT22;6591;51.446;5.404;2023-06-05T16:03:37;33.90;42.40
13049;DHT22;6591;51.446;5.404;2023-06-05T16:06:05;33.80;42.60
13049;DHT22;6591;51.446;5.404;2023-06-05T16:08:32;33.50;42.50
13049;DHT22;6591;51.446;5.404;2023-06-05T16:10:59;33.40;42.50
13049;DHT22;6591;51.446;5.404;2023-06-05T16:13:28;33.20;42.90
13049;DHT22;6591;51.446;5.404;2023-06-05T16:15:55;33.00;43.50
13049;DHT22;6591;51.446;5.404;2023-06-05T16:18:22;32.80;43.90